Time;durP1;ratioP1;P1;durP2;ratioP2;P2;SDS_P1;SDS_P2;PMS_P1;PMS_P2;Temp;Humidity;BMP_temperature;BMP_pressure;BME280_temperature;BME280_humidity;BME280_pressure;Samples;Min_cycle;Max_cycle;Signal;HPM_P1;HPM_P2
2021/01/17 03:46:05;;;;;;;12.35;6.20;;;2.10;56.90;;;;;;5545912;24;20044;-73
2021/01/17 03:48:31;;;;;;;11.23;6.57;;;2.00;56.90;;;;;;4881979;29;20034;-76
2021/01/17 03:50:57;;;;;;;9.70;5.82;;;2.10;56.70;;;;;;4870277;29;20056;-73
2021/01/17 03:53:23;;;;;;;10.88;5.20;;;2.20;56.90;;;;;;4870841;29;20034;-73
2021/01/17 03:55:48;;;;;;;11.60;6.22;;;2.20;56.20;;;;;;4871674;29;20056;-73
2021/01/17 03:58:14;;;;;;;12.88;5.80;;;2.20;56.40;;;;;;4871848;29;20021;-73
2021/01/17 04:00:40;;;;;;;9.18;5.53;;;2.10;56.30;;;;;;4871551;29;20033;-73
2021/01/17 04:03:06;;;;;;;11.55;5.72;;;2.00;56.50;;;;;;4870761;29;20029;-73
2021/01/17 04:05:31;;;;;;;9.85;5.22;;;2.20;56.50;;;;;;4871793;29;20041;-73
2021/01/17 04:07:57;;;;;;;10.57;6.18;;;2.20;56.00;;;;;;4871672;29;20344;-75
2021/01/17 04:10:23;;;;;;;9.80;5.82;;;2.20;56.20;;;;;;4871760;29;20081;-73
2021/01/17 04:12:48;;;;;;;8.32;5.35;;;2.20;56.30;;;;;;4871599;29;20036;-74
2021/01/17 04:15:14;;;;;;;10.32;6.40;;;2.30;56.30;;;;;;4870428;29;20092;-73
2021/01/17 04:17:40;;;;;;;10.90;6.43;;;2.30;56.50;;;;;;4870303;29;20245;-74
2021/01/17 04:20:06;;;;;;;11.05;5.55;;;2.30;56.00;;;;;;4870990;29;20026;-73
2021/01/17 04:22:36;;;;;;;9.90;5.72;;;2.30;56.10;;;;;;4868801;29;20041;-73
2021/01/17 04:25:04;;;;;;;10.32;5.70;;;2.30;56.00;;;;;;4870113;29;20057;-73
2021/01/17 04:27:30;;;;;;;9.68;5.55;;;2.30;56.30;;;;;;4877224;29;20032;-73
2021/01/17 04:29:55;;;;;;;10.10;6.05;;;2.30;55.70;;;;;;4889436;29;20061;-73
2021/01/17 04:32:21;;;;;;;9.10;5.88;;;2.20;55.60;;;;;;4873115;29;20216;-75
2021/01/17 04:34:47;;;;;;;9.07;5.05;;;2.20;55.80;;;;;;4889002;29;20040;-74
2021/01/17 04:37:13;;;;;;;9.77;5.78;;;2.10;56.00;;;;;;4889700;29;20029;-73
2021/01/17 04:39:38;;;;;;;11.23;5.80;;;2.20;56.40;;;;;;4889895;29;20044;-73
2021/01/17 04:42:08;;;;;;;9.23;5.28;;;2.20;55.80;;;;;;4873030;29;20029;-73
2021/01/17 04:44:35;;;;;;;9.48;5.60;;;2.30;56.00;;;;;;4888696;29;20029;-73
2021/01/17 04:47:05;;;;;;;14.48;6.65;;;2.30;56.00;;;;;;4875754;29;20055;-73
2021/01/17 04:49:37;;;;;;;10.23;5.60;;;2.30;55.50;;;;;;4869938;29;20105;-73
2021/01/17 04:52:07;;;;;;;13.50;5.88;;;2.30;55.90;;;;;;4869884;29;20365;-74
2021/01/17 04:54:32;;;;;;;10.05;5.10;;;2.30;55.80;;;;;;4885053;29;20069;-74
2021/01/17 04:57:12;;;;;;;14.70;7.18;;;2.30;55.80;;;;;;4869602;29;20057;-74
2021/01/17 05:00:01;;;;;;;15.02;6.97;;;2.30;55.80;;;;;;4870997;29;20040;-73
2021/01/17 05:02:59;;;;;;;18.17;7.40;;;2.10;55.80;;;;;;4869581;29;20253;-73
2021/01/17 05:05:25;;;;;;;13.13;6.75;;;2.20;56.20;;;;;;4869368;29;20117;-74
2021/01/17 05:08:10;;;;;;;9.60;5.37;;;2.30;56.40;;;;;;4870735;29;20032;-74
2021/01/17 05:10:38;;;;;;;17.50;6.30;;;2.40;56.10;;;;;;4870949;29;20030;-74
2021/01/17 05:13:11;;;;;;;13.27;6.65;;;2.30;55.60;;;;;;4870806;29;20065;-74
2021/01/17 05:15:39;;;;;;;11.15;5.63;;;2.30;55.80;;;;;;4871240;29;20037;-74
2021/01/17 05:18:05;;;;;;;10.50;5.10;;;2.40;56.00;;;;;;4872576;29;20100;-74
2021/01/17 05:20:31;;;;;;;11.30;5.75;;;2.40;55.30;;;;;;4889297;29;20021;-73
2021/01/17 05:22:58;;;;;;;9.93;5.40;;;2.40;55.50;;;;;;4889172;29;20033;-74
2021/01/17 05:25:28;;;;;;;;;;;2.30;55.40;;;;;;4872732;29;20344;-74
2021/01/17 05:27:54;;;;;;;9.75;5.60;;;2.30;55.60;;;;;;4889107;29;19907;-74
2021/01/17 05:30:20;;;;;;;7.70;4.78;;;2.30;55.40;;;;;;4888177;29;20033;-74
2021/01/17 05:32:51;;;;;;;9.20;4.90;;;2.10;55.70;;;;;;4888907;29;20304;-74
2021/01/17 05:35:19;;;;;;;8.68;5.05;;;2.00;55.70;;;;;;4888969;29;20068;-73
2021/01/17 05:37:52;;;;;;;10.95;5.80;;;2.10;55.70;;;;;;4889134;29;20170;-73
2021/01/17 05:40:19;;;;;;;9.90;5.05;;;2.20;55.70;;;;;;4887841;29;20052;-73
2021/01/17 05:42:46;;;;;;;8.55;5.35;;;2.10;55.70;;;;;;4889050;29;20027;-73
2021/01/17 05:45:12;;;;;;;10.90;5.85;;;2.20;55.80;;;;;;4889032;29;20029;-73
2021/01/17 05:47:38;;;;;;;12.27;5.65;;;2.20;55.70;;;;;;4873071;29;20048;-75
2021/01/17 05:50:07;;;;;;;8.80;5.28;;;2.20;55.70;;;;;;4872825;29;20168;-73
2021/01/17 05:52:33;;;;;;;10.15;5.55;;;2.10;55.40;;;;;;4872822;29;20029;-74
2021/01/17 05:54:59;;;;;;;11.65;5.20;;;2.10;55.70;;;;;;4872679;29;20121;-73
2021/01/17 05:57:26;;;;;;;7.35;4.05;;;2.10;55.70;;;;;;4874044;29;20028;-73
2021/01/17 05:59:52;;;;;;;10.02;4.55;;;2.10;55.50;;;;;;4872908;29;20033;-73
2021/01/17 06:02:23;;;;;;;7.93;4.65;;;2.00;55.50;;;;;;4872583;29;20096;-73
2021/01/17 06:04:59;;;;;;;7.95;4.93;;;1.90;55.90;;;;;;4872547;29;20388;-73
2021/01/17 06:07:29;;;;;;;11.20;5.22;;;2.00;56.10;;;;;;4873840;29;20033;-74
2021/01/17 06:09:56;;;;;;;12.20;7.05;;;2.10;55.70;;;;;;4872334;29;20057;-73
2021/01/17 06:12:35;;;;;;;;;;;2.00;55.50;;;;;;4873109;29;20045;-73
2021/01/17 06:15:09;;;;;;;15.05;5.70;;;1.90;55.40;;;;;;4872422;29;19915;-74
2021/01/17 06:17:39;;;;;;;8.80;4.65;;;2.00;55.60;;;;;;4888846;29;20033;-73
2021/01/17 06:20:08;;;;;;;12.52;5.10;;;2.00;55.70;;;;;;4892272;29;20029;-73
2021/01/17 06:22:36;;;;;;;14.60;4.72;;;2.00;55.30;;;;;;4892008;29;20044;-73
2021/01/17 06:25:04;;;;;;;10.13;5.15;;;2.00;55.50;;;;;;4891753;29;20073;-75
2021/01/17 06:27:31;;;;;;;9.85;4.68;;;2.10;55.70;;;;;;4884486;29;20032;-74
2021/01/17 06:29:57;;;;;;;9.07;4.93;;;2.10;55.30;;;;;;4872140;29;20074;-73
2021/01/17 06:32:25;;;;;;;9.43;5.27;;;2.20;55.50;;;;;;4873187;29;20063;-74
2021/01/17 06:34:54;;;;;;;9.10;5.15;;;2.00;54.80;;;;;;4887519;29;20053;-74
2021/01/17 06:37:25;;;;;;;9.48;5.00;;;2.10;55.40;;;;;;4873041;29;20026;-74
2021/01/17 06:39:53;;;;;;;10.07;5.47;;;2.00;55.10;;;;;;4872933;29;20037;-75
2021/01/17 06:42:21;;;;;;;10.32;5.57;;;2.00;55.40;;;;;;4872050;29;20060;-74
2021/01/17 06:44:49;;;;;;;8.18;4.78;;;2.00;55.20;;;;;;4876133;29;20044;-74
2021/01/17 06:47:26;;;;;;;9.18;5.03;;;1.90;55.60;;;;;;4883034;29;20048;-74
2021/01/17 06:49:54;;;;;;;13.55;5.57;;;1.90;55.60;;;;;;4880295;29;20052;-74
2021/01/17 06:52:20;;;;;;;10.25;5.47;;;1.90;55.40;;;;;;4883254;29;20052;-74
2021/01/17 06:54:51;;;;;;;11.02;4.90;;;2.00;55.30;;;;;;4882850;29;20078;-74
2021/01/17 06:57:19;;;;;;;9.63;4.75;;;2.00;55.20;;;;;;4881736;29;20034;-74
2021/01/17 06:59:52;;;;;;;11.00;5.30;;;2.10;55.10;;;;;;4878513;29;20067;-75
2021/01/17 07:02:36;;;;;;;10.25;4.90;;;1.90;55.10;;;;;;4878829;29;20212;-74
2021/01/17 07:05:20;;;;;;;9.55;5.07;;;1.80;55.20;;;;;;4880470;29;20038;-73
2021/01/17 07:08:21;;;;;;;9.13;5.05;;;1.90;55.90;;;;;;4882359;29;20343;-74
2021/01/17 07:10:52;;;;;;;9.75;5.03;;;1.90;55.30;;;;;;4874789;29;20044;-74
2021/01/17 07:13:21;;;;;;;7.85;4.82;;;2.10;55.70;;;;;;4903690;29;20036;-74
2021/01/17 07:15:49;;;;;;;10.07;6.07;;;2.00;55.90;;;;;;4882524;29;20332;-74
2021/01/17 07:18:17;;;;;;;8.20;4.90;;;2.00;55.20;;;;;;4879391;29;20034;-74
2021/01/17 07:20:49;;;;;;;11.13;5.47;;;2.00;55.50;;;;;;4882697;29;20022;-74
2021/01/17 07:23:19;;;;;;;10.25;5.65;;;2.10;55.70;;;;;;4879692;29;20464;-74
2021/01/17 07:25:46;;;;;;;10.93;5.97;;;1.90;55.20;;;;;;4862709;29;20205;-74
2021/01/17 07:28:20;;;;;;;9.63;5.28;;;2.00;55.50;;;;;;4876922;29;20133;-74
2021/01/17 07:30:50;;;;;;;9.55;4.78;;;2.00;55.50;;;;;;4902612;29;20033;-74
2021/01/17 07:33:24;;;;;;;8.43;4.72;;;1.80;55.40;;;;;;4880646;29;20029;-75
2021/01/17 07:35:51;;;;;;;9.80;4.55;;;1.90;55.90;;;;;;4882172;29;20033;-74
2021/01/17 07:38:23;;;;;;;11.38;6.15;;;1.80;56.00;;;;;;4905064;29;20033;-74
2021/01/17 07:40:57;;;;;;;8.02;4.97;;;1.90;56.00;;;;;;4879371;29;20021;-74
2021/01/17 07:43:32;;;;;;;10.55;5.70;;;2.00;56.10;;;;;;4879494;29;20032;-75
2021/01/17 07:46:03;;;;;;;9.05;5.32;;;1.70;56.00;;;;;;4890317;29;20069;-74
2021/01/17 07:48:30;;;;;;;10.45;5.85;;;1.90;56.10;;;;;;4890547;29;20249;-75
2021/01/17 07:50:57;;;;;;;10.85;6.32;;;2.00;56.10;;;;;;4889261;29;20036;-75
2021/01/17 07:53:41;;;;;;;12.70;7.22;;;1.90;56.20;;;;;;4889321;29;20332;-74
2021/01/17 07:56:32;;;;;;;14.95;7.07;;;2.10;56.10;;;;;;4880098;29;20044;-75
2021/01/17 07:59:03;;;;;;;9.43;5.93;;;2.20;55.60;;;;;;4881027;29;20132;-75
2021/01/17 08:01:35;;;;;;;10.20;6.22;;;2.00;55.60;;;;;;4881238;29;20032;-74
2021/01/17 08:04:03;;;;;;;10.18;6.10;;;2.00;56.00;;;;;;4858956;29;20321;-75
2021/01/17 08:06:35;;;;;;;12.35;6.32;;;2.10;55.80;;;;;;4870645;29;20576;-74
2021/01/17 08:09:08;;;;;;;9.82;6.07;;;2.00;55.60;;;;;;4871168;29;20022;-75
2021/01/17 08:11:57;;;;;;;14.57;5.97;;;2.00;55.90;;;;;;4870295;29;20037;-74
2021/01/17 08:14:30;;;;;;;17.40;5.90;;;1.90;55.50;;;;;;4870447;29;20332;-75
2021/01/17 08:17:16;;;;;;;12.98;6.40;;;2.10;55.90;;;;;;4871510;29;20022;-75
2021/01/17 08:19:54;;;;;;;10.88;5.97;;;1.90;55.50;;;;;;4870390;29;20033;-75
2021/01/17 08:22:23;;;;;;;8.52;5.28;;;1.90;56.10;;;;;;4870184;29;20049;-74
2021/01/17 08:24:55;;;;;;;10.10;6.25;;;2.00;55.70;;;;;;4870358;29;20057;-73
2021/01/17 08:27:41;;;;;;;10.20;6.05;;;2.10;56.00;;;;;;4878183;29;20029;-74
2021/01/17 08:30:16;;;;;;;15.00;6.75;;;2.10;55.20;;;;;;4854802;29;20037;-75
2021/01/17 08:32:47;;;;;;;10.20;5.65;;;2.10;55.70;;;;;;4871518;29;20029;-74
2021/01/17 08:35:13;;;;;;;10.25;5.90;;;2.00;55.00;;;;;;4870470;29;20097;-74
2021/01/17 08:37:40;;;;;;;12.98;7.32;;;1.80;55.60;;;;;;4871419;29;20018;-75
2021/01/17 08:40:07;;;;;;;14.48;6.32;;;2.00;56.10;;;;;;4854634;29;20064;-75
2021/01/17 08:42:47;;;;;;;12.93;6.55;;;1.90;55.60;;;;;;4869959;29;20030;-75
2021/01/17 08:45:19;;;;;;;14.85;7.07;;;2.10;55.50;;;;;;4870245;29;20332;-75
2021/01/17 08:47:45;;;;;;;13.15;6.55;;;2.10;55.90;;;;;;4870618;29;20085;-74
2021/01/17 08:50:27;;;;;;;13.85;6.97;;;2.30;55.80;;;;;;4869986;29;20033;-76
2021/01/17 08:53:05;;;;;;;15.73;7.57;;;2.30;55.50;;;;;;4870867;29;20021;-75
2021/01/17 08:55:36;;;;;;;12.45;6.95;;;2.40;55.50;;;;;;4870040;29;20038;-75
2021/01/17 08:58:03;;;;;;;13.77;6.78;;;2.20;55.20;;;;;;4871128;29;20030;-75
2021/01/17 09:00:50;;;;;;;11.47;5.80;;;2.20;55.60;;;;;;4854478;29;20029;-75
2021/01/17 09:03:26;;;;;;;12.07;6.78;;;2.20;55.30;;;;;;4871093;29;20270;-76
2021/01/17 09:05:54;;;;;;;12.75;6.07;;;2.30;55.40;;;;;;4854121;29;20073;-76
2021/01/17 09:08:20;;;;;;;16.55;8.50;;;2.30;55.00;;;;;;4854405;29;20046;-76
2021/01/17 09:10:46;;;;;;;12.48;7.07;;;2.30;55.40;;;;;;4870713;29;20040;-75
2021/01/17 09:13:19;;;;;;;14.60;7.15;;;2.30;55.40;;;;;;4869794;29;20036;-76
2021/01/17 09:16:01;;;;;;;12.65;6.47;;;2.40;55.50;;;;;;4854246;29;20033;-76
2021/01/17 09:18:33;;;;;;;15.00;6.93;;;2.50;54.90;;;;;;4869682;29;20033;-76
2021/01/17 09:20:59;;;;;;;13.65;7.72;;;2.60;54.70;;;;;;4871704;29;20041;-76
2021/01/17 09:23:26;;;;;;;13.57;6.80;;;2.60;54.80;;;;;;4888108;29;20049;-76
2021/01/17 09:26:00;;;;;;;14.07;7.32;;;2.50;54.70;;;;;;4884610;29;20029;-75
2021/01/17 09:28:27;;;;;;;13.25;7.03;;;2.40;54.70;;;;;;4870257;29;20092;-76
2021/01/17 09:30:54;;;;;;;;;;;2.40;55.20;;;;;;4869388;29;20041;-76
2021/01/17 09:33:20;;;;;;;17.30;7.60;;;2.60;55.20;;;;;;4868999;29;19908;-76
2021/01/17 09:35:48;;;;;;;17.73;7.87;;;2.80;54.70;;;;;;4870346;29;20041;-76
2021/01/17 09:38:16;;;;;;;18.17;6.78;;;2.80;54.80;;;;;;4869393;29;20060;-75
2021/01/17 09:40:44;;;;;;;13.40;6.57;;;2.70;54.40;;;;;;4898636;29;20037;-75
2021/01/17 09:43:10;;;;;;;12.80;6.88;;;2.70;54.30;;;;;;4886000;29;20033;-75
2021/01/17 09:45:36;;;;;;;15.68;6.90;;;2.70;54.80;;;;;;4886011;29;20036;-75
2021/01/17 09:48:03;;;;;;;11.27;6.53;;;2.60;54.80;;;;;;4878060;29;20037;-75
2021/01/17 09:50:33;;;;;;;12.30;6.85;;;2.60;54.40;;;;;;4875983;29;20040;-76
2021/01/17 09:53:09;;;;;;;15.20;6.90;;;2.60;54.50;;;;;;4869323;29;20077;-75
2021/01/17 09:55:42;;;;;;;15.05;7.80;;;2.80;54.80;;;;;;4883988;29;20111;-75
2021/01/17 09:58:13;;;;;;;12.70;7.10;;;2.90;54.80;;;;;;4879153;29;20037;-75
2021/01/17 10:00:40;;;;;;;14.15;6.32;;;2.90;54.10;;;;;;4877372;29;20216;-75
2021/01/17 10:03:08;;;;;;;13.68;6.82;;;2.80;54.20;;;;;;4865882;29;20112;-75
2021/01/17 10:05:36;;;;;;;15.57;6.95;;;2.80;54.60;;;;;;4878580;29;20271;-75
2021/01/17 10:08:03;;;;;;;25.50;9.85;;;2.80;54.10;;;;;;4875990;29;20048;-74
2021/01/17 10:10:29;;;;;;;18.83;8.40;;;2.90;54.80;;;;;;4861501;29;20104;-75
2021/01/17 10:12:55;;;;;;;13.70;7.43;;;3.00;54.30;;;;;;4875597;29;20077;-74
2021/01/17 10:15:21;;;;;;;13.90;8.00;;;2.90;54.10;;;;;;4882329;29;20040;-75
2021/01/17 10:17:47;;;;;;;14.13;7.20;;;3.10;54.30;;;;;;4872342;29;20029;-74
2021/01/17 10:20:33;;;;;;;11.25;6.63;;;3.10;54.10;;;;;;4884825;29;20036;-74
2021/01/17 10:23:12;;;;;;;15.75;8.52;;;3.00;54.00;;;;;;4886846;29;20039;-74
2021/01/17 10:25:38;;;;;;;14.82;7.95;;;3.00;54.50;;;;;;4876247;29;20289;-74
2021/01/17 10:28:09;;;;;;;13.82;7.47;;;3.10;54.40;;;;;;4883936;29;20033;-74
2021/01/17 10:30:36;;;;;;;13.43;7.25;;;3.20;54.60;;;;;;4867655;29;20025;-74
2021/01/17 10:33:10;;;;;;;15.88;8.07;;;3.20;54.60;;;;;;4884334;29;20071;-74
2021/01/17 10:35:47;;;;;;;14.20;7.55;;;3.30;54.30;;;;;;4889811;29;20037;-75
2021/01/17 10:38:13;;;;;;;14.82;8.38;;;3.30;53.30;;;;;;4880816;29;20328;-75
2021/01/17 10:40:40;;;;;;;23.27;7.40;;;3.10;54.10;;;;;;4880654;29;20086;-75
2021/01/17 10:43:09;;;;;;;14.02;7.85;;;3.30;54.20;;;;;;4882012;29;20066;-75
2021/01/17 10:45:38;;;;;;;13.73;7.95;;;3.30;54.40;;;;;;4882238;29;20041;-75
2021/01/17 10:48:11;;;;;;;16.75;7.90;;;3.40;53.80;;;;;;4879282;29;20085;-75
2021/01/17 10:50:46;;;;;;;16.75;7.82;;;3.50;53.70;;;;;;4878301;29;20032;-75
2021/01/17 10:53:25;;;;;;;15.02;6.57;;;3.60;53.60;;;;;;4871750;29;20056;-75
2021/01/17 10:55:59;;;;;;;20.50;8.20;;;3.50;53.40;;;;;;4879296;29;20310;-75
2021/01/17 10:58:28;;;;;;;21.00;9.27;;;3.40;53.80;;;;;;4879426;29;20039;-76
2021/01/17 11:00:56;;;;;;;14.02;7.90;;;3.50;54.10;;;;;;4877592;29;20017;-75
2021/01/17 11:03:36;;;;;;;15.55;7.72;;;3.70;54.20;;;;;;4871155;29;20037;-75
2021/01/17 11:06:13;;;;;;;14.60;7.85;;;3.70;53.80;;;;;;4864859;29;20037;-75
2021/01/17 11:08:55;;;;;;;20.13;8.13;;;3.70;53.20;;;;;;4904309;29;20084;-74
2021/01/17 11:11:29;;;;;;;13.70;8.35;;;3.60;53.20;;;;;;4882102;29;20034;-75
2021/01/17 11:14:04;;;;;;;22.85;8.02;;;3.50;53.50;;;;;;4870387;29;20096;-74
2021/01/17 11:16:36;;;;;;;16.25;8.15;;;3.50;53.60;;;;;;4877907;29;20077;-74
2021/01/17 11:19:03;;;;;;;12.65;6.93;;;3.50;53.70;;;;;;4878072;29;20025;-74
2021/01/17 11:21:30;;;;;;;14.65;8.55;;;3.40;53.80;;;;;;4878099;29;20025;-74
2021/01/17 11:23:57;;;;;;;18.40;8.77;;;3.50;53.90;;;;;;4879781;29;20029;-75
2021/01/17 11:26:24;;;;;;;25.10;11.23;;;3.40;53.80;;;;;;4872337;29;20040;-75
2021/01/17 11:28:52;;;;;;;18.17;9.13;;;3.50;54.00;;;;;;4880526;29;20049;-75
2021/01/17 11:31:19;;;;;;;15.93;8.75;;;3.30;54.00;;;;;;4881803;29;20030;-75
2021/01/17 11:33:47;;;;;;;;;;;3.30;54.30;;;;;;4884470;29;20044;-75
2021/01/17 11:36:26;;;;;;;15.15;8.18;;;3.40;54.50;;;;;;4889059;29;19912;-74
2021/01/17 11:38:54;;;;;;;17.13;9.07;;;3.40;54.20;;;;;;4888846;29;20107;-75
2021/01/17 11:41:42;;;;;;;26.23;9.98;;;3.20;54.20;;;;;;4876260;29;20049;-74
2021/01/17 11:44:16;;;;;;;18.67;10.00;;;3.30;54.60;;;;;;4888064;29;20047;-74
2021/01/17 11:46:43;;;;;;;25.60;11.55;;;3.50;54.60;;;;;;4876406;29;20112;-74
2021/01/17 11:49:10;;;;;;;33.53;10.20;;;3.40;54.10;;;;;;4883186;29;20039;-74
2021/01/17 11:51:37;;;;;;;18.55;9.95;;;3.40;54.10;;;;;;4880957;29;20026;-76
2021/01/17 11:54:13;;;;;;;33.75;12.02;;;3.30;54.20;;;;;;4874847;29;20104;-75
2021/01/17 11:56:40;;;;;;;32.80;9.83;;;3.50;54.30;;;;;;4864002;29;20037;-75
2021/01/17 11:59:06;;;;;;;17.27;8.95;;;3.60;54.60;;;;;;4879425;29;20033;-75
2021/01/17 12:01:32;;;;;;;14.18;8.00;;;3.60;54.40;;;;;;4885817;29;20309;-75
2021/01/17 12:04:08;;;;;;;16.15;8.90;;;3.60;54.00;;;;;;4859104;29;20041;-74
2021/01/17 12:06:34;;;;;;;18.38;9.30;;;3.50;54.00;;;;;;4880051;29;20045;-74
2021/01/17 12:08:59;;;;;;;19.95;8.70;;;3.50;54.10;;;;;;4881375;29;20025;-74
2021/01/17 12:11:39;;;;;;;15.37;9.10;;;3.60;53.90;;;;;;4884536;29;20212;-74
2021/01/17 12:14:08;;;;;;;17.52;8.98;;;3.60;54.20;;;;;;4887712;29;20056;-74
2021/01/17 12:16:42;;;;;;;14.60;8.85;;;3.60;53.90;;;;;;4879581;29;20036;-74
2021/01/17 12:19:10;;;;;;;18.70;10.18;;;3.80;54.20;;;;;;4875346;29;20220;-75
2021/01/17 12:21:36;;;;;;;17.17;9.73;;;3.80;54.10;;;;;;4886385;29;20056;-74
2021/01/17 12:24:04;;;;;;;17.20;8.93;;;3.90;54.00;;;;;;4888644;29;20077;-74
2021/01/17 12:26:29;;;;;;;17.10;8.98;;;3.90;53.70;;;;;;4878550;29;20044;-75
2021/01/17 12:28:55;;;;;;;25.73;8.70;;;3.90;53.40;;;;;;4868852;29;20030;-75
2021/01/17 12:31:23;;;;;;;17.27;9.45;;;3.90;53.80;;;;;;4853084;29;20325;-74
2021/01/17 12:33:49;;;;;;;18.88;9.25;;;3.80;53.60;;;;;;4880687;29;20340;-75
2021/01/17 12:36:18;;;;;;;14.77;8.50;;;3.80;53.80;;;;;;4870099;29;20045;-74
2021/01/17 12:38:45;;;;;;;23.05;9.63;;;3.90;53.90;;;;;;4875677;29;20021;-74
2021/01/17 12:41:11;;;;;;;;;;;4.00;53.80;;;;;;4876065;29;20032;-74
2021/01/17 12:43:39;;;;;;;16.75;9.07;;;3.90;53.60;;;;;;4876389;29;19956;-75
2021/01/17 12:46:06;;;;;;;18.05;9.35;;;3.80;53.40;;;;;;4880326;29;20100;-74
2021/01/17 12:48:32;;;;;;;23.52;9.82;;;3.70;53.90;;;;;;4874860;29;20093;-74
2021/01/17 12:50:58;;;;;;;20.52;9.27;;;3.90;54.20;;;;;;4881128;29;20033;-74
2021/01/17 12:53:24;;;;;;;22.15;10.02;;;3.90;53.70;;;;;;4869441;29;20070;-74
2021/01/17 12:55:50;;;;;;;18.58;11.10;;;4.00;53.90;;;;;;4875402;29;20324;-73
2021/01/17 12:58:15;;;;;;;26.02;11.23;;;4.10;54.10;;;;;;4888137;29;20032;-75
2021/01/17 13:00:41;;;;;;;19.08;10.93;;;4.10;53.80;;;;;;4875833;29;20052;-74
2021/01/17 13:03:07;;;;;;;20.85;10.82;;;4.00;52.90;;;;;;4856835;29;20339;-75
2021/01/17 13:05:33;;;;;;;23.90;11.38;;;4.10;53.70;;;;;;4882170;29;20025;-75
2021/01/17 13:07:59;;;;;;;19.30;9.30;;;4.10;53.70;;;;;;4864821;29;20153;-75
2021/01/17 13:10:26;;;;;;;18.70;10.20;;;4.10;53.80;;;;;;4873487;29;20297;-74
2021/01/17 13:12:52;;;;;;;16.48;9.75;;;4.10;53.70;;;;;;4873036;29;20051;-74
2021/01/17 13:15:19;;;;;;;21.77;9.60;;;4.10;53.80;;;;;;4877117;29;20037;-76
2021/01/17 13:17:45;;;;;;;16.88;8.65;;;4.10;53.40;;;;;;4884940;29;20153;-74
2021/01/17 13:20:11;;;;;;;18.85;10.05;;;3.90;53.90;;;;;;4861365;29;20021;-74
2021/01/17 13:22:37;;;;;;;18.75;10.50;;;3.70;54.40;;;;;;4868579;29;20030;-74
2021/01/17 13:25:06;;;;;;;25.60;9.73;;;3.80;55.00;;;;;;4868527;29;20073;-74
2021/01/17 13:27:32;;;;;;;20.00;9.73;;;3.70;55.10;;;;;;4887284;29;20029;-74
2021/01/17 13:29:58;;;;;;;23.52;11.13;;;3.60;55.40;;;;;;4886488;29;20044;-74
2021/01/17 13:32:23;;;;;;;20.77;10.27;;;3.60;55.50;;;;;;4886909;29;20076;-74
2021/01/17 13:34:49;;;;;;;19.08;10.60;;;3.50;55.90;;;;;;4870802;29;20288;-74
2021/01/17 13:37:16;;;;;;;19.13;10.55;;;3.40;56.80;;;;;;4880559;29;20057;-74
2021/01/17 13:39:46;;;;;;;;;;;3.40;58.10;;;;;;4875076;29;20150;-75
2021/01/17 13:42:19;;;;;;;17.40;10.77;;;3.40;58.60;;;;;;4879465;29;19974;-75
2021/01/17 13:44:45;;;;;;;25.58;11.20;;;3.40;59.50;;;;;;4885440;29;20044;-75
2021/01/17 13:47:11;;;;;;;22.77;11.88;;;3.40;59.70;;;;;;4868998;29;20037;-75
2021/01/17 13:49:37;;;;;;;21.42;11.93;;;3.50;59.90;;;;;;4874754;29;20040;-75
2021/01/17 13:52:06;;;;;;;24.60;12.23;;;3.50;59.70;;;;;;4883821;29;20040;-75
2021/01/17 13:54:32;;;;;;;24.15;12.73;;;3.40;61.10;;;;;;4879518;29;20443;-75
2021/01/17 13:56:58;;;;;;;21.77;11.23;;;3.40;61.30;;;;;;4879023;29;20352;-75
2021/01/17 13:59:25;;;;;;;19.35;11.38;;;3.30;61.90;;;;;;4875672;29;20052;-74
2021/01/17 14:01:51;;;;;;;23.53;12.60;;;3.30;61.70;;;;;;4877391;29;20028;-75
2021/01/17 14:04:17;;;;;;;21.42;11.18;;;3.40;61.70;;;;;;4871199;29;20282;-75
2021/01/17 14:06:43;;;;;;;18.70;10.25;;;3.30;62.00;;;;;;4885236;29;20025;-75
2021/01/17 14:09:10;;;;;;;24.55;13.40;;;3.30;61.60;;;;;;4879649;29;20025;-76
2021/01/17 14:11:36;;;;;;;24.73;13.23;;;3.30;61.30;;;;;;4881544;29;20257;-76
2021/01/17 14:14:02;;;;;;;24.88;13.98;;;3.40;61.20;;;;;;4880627;29;20033;-75
2021/01/17 14:16:28;;;;;;;14.20;8.07;;;3.40;61.00;;;;;;4887994;29;20104;-75
2021/01/17 14:18:54;;;;;;;16.00;9.38;;;3.40;60.80;;;;;;4882544;29;20317;-75
2021/01/17 14:21:19;;;;;;;13.60;8.27;;;3.20;60.00;;;;;;4881140;29;20033;-75
2021/01/17 14:23:45;;;;;;;16.92;9.90;;;3.30;60.60;;;;;;4864315;29;20054;-75
2021/01/17 14:26:11;;;;;;;17.80;9.35;;;3.30;59.20;;;;;;4882015;29;20022;-75
2021/01/17 14:28:37;;;;;;;16.77;8.65;;;3.30;59.60;;;;;;4885648;29;20149;-75
2021/01/17 14:31:03;;;;;;;12.77;7.15;;;3.10;59.60;;;;;;4880259;29;20048;-76
2021/01/17 14:33:29;;;;;;;12.75;7.35;;;2.90;59.90;;;;;;4881147;29;20234;-74
2021/01/17 14:35:54;;;;;;;14.90;8.70;;;2.80;60.50;;;;;;4863748;29;20069;-75
2021/01/17 14:38:20;;;;;;;19.52;8.68;;;2.80;60.70;;;;;;4871326;29;20033;-75
2021/01/17 14:40:46;;;;;;;14.77;7.90;;;2.90;60.70;;;;;;4878183;29;20264;-74
2021/01/17 14:43:11;;;;;;;15.60;9.43;;;3.00;60.40;;;;;;4872407;29;20021;-75
2021/01/17 14:45:37;;;;;;;15.35;8.57;;;3.00;60.40;;;;;;4883462;29;20025;-75
2021/01/17 14:48:03;;;;;;;15.32;8.57;;;3.10;60.60;;;;;;4879073;29;20060;-75
2021/01/17 14:50:29;;;;;;;13.50;8.80;;;3.10;59.90;;;;;;4872485;29;20109;-74
2021/01/17 14:52:55;;;;;;;17.33;8.57;;;3.10;59.30;;;;;;4886653;29;20063;-75
2021/01/17 14:55:24;;;;;;;12.90;7.93;;;3.10;58.80;;;;;;4882865;29;20048;-75
2021/01/17 14:57:54;;;;;;;13.75;9.00;;;2.90;57.60;;;;;;4883276;29;20025;-74
2021/01/17 15:00:20;;;;;;;12.70;7.07;;;3.00;58.50;;;;;;4880835;29;20029;-75
2021/01/17 15:02:46;;;;;;;12.57;7.60;;;3.10;58.20;;;;;;4880087;29;20025;-74
2021/01/17 15:05:13;;;;;;;16.20;7.57;;;3.20;57.70;;;;;;4874878;29;20044;-75
2021/01/17 15:07:38;;;;;;;13.80;7.63;;;3.30;56.90;;;;;;4875023;29;20048;-74
2021/01/17 15:10:05;;;;;;;15.52;8.48;;;3.20;56.90;;;;;;4871737;29;20204;-74
2021/01/17 15:12:34;;;;;;;14.95;8.02;;;3.20;56.90;;;;;;4870661;29;20029;-74
2021/01/17 15:14:59;;;;;;;12.70;7.47;;;3.20;56.90;;;;;;4881667;29;20037;-75
2021/01/17 15:17:25;;;;;;;12.73;7.70;;;3.10;56.20;;;;;;4877488;29;20471;-74
2021/01/17 15:19:51;;;;;;;13.38;7.13;;;3.00;55.90;;;;;;4880469;29;20217;-74
2021/01/17 15:22:17;;;;;;;11.30;6.63;;;3.10;56.00;;;;;;4882564;29;20037;-75
2021/01/17 15:24:42;;;;;;;11.48;6.70;;;3.00;55.60;;;;;;4881169;29;20062;-75
2021/01/17 15:27:08;;;;;;;12.05;7.18;;;2.90;55.70;;;;;;4873533;29;20056;-74
2021/01/17 15:29:34;;;;;;;10.63;6.10;;;3.00;55.60;;;;;;4889960;29;20036;-75
2021/01/17 15:32:04;;;;;;;10.38;6.25;;;3.00;55.30;;;;;;4875005;29;20120;-74
2021/01/17 15:34:30;;;;;;;9.93;5.38;;;3.00;54.90;;;;;;4888625;29;20041;-74
2021/01/17 15:36:55;;;;;;;15.45;8.18;;;2.90;55.00;;;;;;4876368;29;20076;-74
2021/01/17 15:39:21;;;;;;;18.55;9.43;;;3.00;54.70;;;;;;4878802;29;20025;-74
2021/01/17 15:41:47;;;;;;;18.50;8.20;;;3.00;54.80;;;;;;4871079;29;20038;-73
2021/01/17 15:44:13;;;;;;;14.23;8.63;;;2.80;54.40;;;;;;4880438;29;20080;-74
2021/01/17 15:46:38;;;;;;;36.33;14.50;;;2.90;55.00;;;;;;4873124;29;20044;-74
2021/01/17 15:49:04;;;;;;;20.08;9.68;;;3.10;55.00;;;;;;4863936;29;20055;-74
2021/01/17 15:51:32;;;;;;;22.13;8.60;;;3.00;54.70;;;;;;4869836;29;20049;-74
2021/01/17 15:53:59;;;;;;;20.90;8.32;;;3.00;54.50;;;;;;4888398;29;20059;-74
2021/01/17 15:56:25;;;;;;;16.35;8.27;;;3.00;54.40;;;;;;4877727;29;20088;-74
2021/01/17 15:58:51;;;;;;;25.80;8.93;;;2.90;54.30;;;;;;4888682;29;20250;-74
2021/01/17 16:01:18;;;;;;;27.92;9.13;;;3.00;54.80;;;;;;4885523;29;20026;-73
2021/01/17 16:03:44;;;;;;;;;;;2.80;53.50;;;;;;4886678;29;20207;-73
2021/01/17 16:06:12;;;;;;;17.93;8.27;;;2.90;55.00;;;;;;4880066;29;19955;-74
2021/01/17 16:08:39;;;;;;;21.17;9.55;;;2.90;54.20;;;;;;4888063;29;20217;-74
2021/01/17 16:11:04;;;;;;;20.20;9.32;;;2.90;54.60;;;;;;4866912;29;20132;-74
2021/01/17 16:13:30;;;;;;;19.90;8.68;;;3.00;54.50;;;;;;4874019;29;20037;-74
2021/01/17 16:15:56;;;;;;;19.40;9.90;;;3.00;54.50;;;;;;4872164;29;20049;-74
2021/01/17 16:18:22;;;;;;;18.75;9.70;;;2.90;54.70;;;;;;4878790;29;20029;-75
2021/01/17 16:20:49;;;;;;;20.23;10.05;;;2.80;55.30;;;;;;4875870;29;20033;-74
2021/01/17 16:23:15;;;;;;;27.48;11.88;;;2.80;55.70;;;;;;4884486;29;20096;-74
2021/01/17 16:25:41;;;;;;;24.50;10.43;;;2.90;55.60;;;;;;4880530;29;20198;-74
2021/01/17 16:28:08;;;;;;;21.67;11.68;;;2.90;55.60;;;;;;4880181;29;20048;-73
2021/01/17 16:30:34;;;;;;;;;;;3.00;55.90;;;;;;4889156;29;20077;-73
2021/01/17 16:33:05;;;;;;;19.60;10.00;;;3.00;55.60;;;;;;4889379;29;19907;-73
2021/01/17 16:35:31;;;;;;;20.08;10.65;;;3.00;55.70;;;;;;4879334;29;20105;-73
2021/01/17 16:38:00;;;;;;;24.65;10.40;;;2.90;55.40;;;;;;4868959;29;20033;-73
2021/01/17 16:40:26;;;;;;;18.15;10.18;;;3.00;55.90;;;;;;4869883;29;20044;-73
2021/01/17 16:42:53;;;;;;;23.30;10.05;;;3.00;55.70;;;;;;4869056;29;20029;-73
2021/01/17 16:45:21;;;;;;;22.02;11.00;;;3.00;55.90;;;;;;4875558;29;20032;-74